createdAt,value
2023-05-14T00:00:36.877Z,25
2023-05-14T00:03:09.185Z,27
2023-05-14T00:05:40.111Z,29
2023-05-14T00:08:11.260Z,24
2023-05-14T00:10:41.885Z,33
2023-05-14T00:13:12.452Z,24
2023-05-14T00:15:43.249Z,32
2023-05-14T00:18:14.076Z,24
2023-05-14T00:20:44.485Z,32
2023-05-14T00:23:15.294Z,28
2023-05-14T00:25:46.028Z,27
2023-05-14T00:28:16.550Z,24
2023-05-14T00:30:47.177Z,23
2023-05-14T00:33:17.516Z,25
2023-05-14T00:35:48.281Z,24
2023-05-14T00:38:19.104Z,24
2023-05-14T00:40:49.984Z,23
2023-05-14T00:43:21.524Z,24
2023-05-14T00:45:52.575Z,19
2023-05-14T00:48:22.984Z,16
2023-05-14T00:50:53.751Z,20
2023-05-14T00:53:25.140Z,24
2023-05-14T00:55:55.986Z,20
2023-05-14T00:58:26.140Z,19
2023-05-14T01:00:56.995Z,16
2023-05-14T01:03:28.623Z,20
2023-05-14T01:05:59.954Z,18
2023-05-14T01:08:30.592Z,17
2023-05-14T01:11:01.133Z,17
2023-05-14T01:13:32.133Z,23
2023-05-14T01:16:02.813Z,19
2023-05-14T01:18:33.667Z,16
2023-05-14T01:21:04.818Z,19
2023-05-14T01:23:35.788Z,20
2023-05-14T01:26:06.936Z,20
2023-05-14T01:28:38.204Z,16
2023-05-14T01:31:09.040Z,17
2023-05-14T01:33:40.435Z,18
2023-05-14T01:36:11.645Z,17
2023-05-14T01:38:42.471Z,13
2023-05-14T01:41:13.282Z,16
2023-05-14T01:43:44.236Z,15
2023-05-14T01:46:15.039Z,16
2023-05-14T01:48:45.968Z,16
2023-05-14T01:51:16.794Z,19
2023-05-14T01:53:47.590Z,19
2023-05-14T01:56:18.442Z,16
2023-05-14T01:58:48.966Z,16
2023-05-14T02:01:19.524Z,17
2023-05-14T02:03:50.284Z,15
2023-05-14T02:06:21.425Z,20
2023-05-14T02:08:52.265Z,15
2023-05-14T02:11:23.020Z,19
2023-05-14T02:13:53.700Z,15
2023-05-14T02:16:24.313Z,16
2023-05-14T02:18:55.944Z,16
2023-05-14T02:21:26.457Z,19
2023-05-14T02:23:57.017Z,17
2023-05-14T02:26:27.549Z,15
2023-05-14T02:28:58.203Z,16
2023-05-14T02:31:28.967Z,15
2023-05-14T02:34:00.259Z,16
2023-05-14T02:36:31.902Z,12
2023-05-14T02:39:02.953Z,15
2023-05-14T02:41:34.079Z,16
2023-05-14T02:44:04.939Z,19
2023-05-14T02:46:35.559Z,16
2023-05-14T02:49:06.243Z,14
2023-05-14T02:51:36.796Z,16
2023-05-14T02:54:07.689Z,13
2023-05-14T02:56:38.298Z,20
2023-05-14T02:59:09.155Z,16
2023-05-14T03:01:40.026Z,16
2023-05-14T03:04:11.064Z,17
2023-05-14T03:06:42.418Z,20
2023-05-14T03:09:13.201Z,19
2023-05-14T03:11:44.059Z,16
2023-05-14T03:14:14.732Z,17
2023-05-14T03:16:45.874Z,20
2023-05-14T03:19:16.856Z,17
2023-05-14T03:21:47.308Z,13
2023-05-14T03:24:18.364Z,16
2023-05-14T03:26:48.991Z,16
2023-05-14T03:29:19.582Z,13
2023-05-14T03:31:50.446Z,16
2023-05-14T03:34:20.624Z,19
2023-05-14T03:36:51.471Z,19
2023-05-14T03:39:22.503Z,18
2023-05-14T03:41:52.732Z,17
2023-05-14T03:44:23.844Z,20
2023-05-14T03:46:54.746Z,16
2023-05-14T03:49:25.002Z,19
2023-05-14T03:51:56.462Z,20
2023-05-14T03:54:27.123Z,20
2023-05-14T03:56:58.098Z,16
2023-05-14T03:59:28.696Z,20
2023-05-14T04:01:59.639Z,19
2023-05-14T04:04:30.468Z,19
2023-05-14T04:07:01.436Z,16
2023-05-14T04:09:30.976Z,20
2023-05-14T04:12:01.926Z,17
2023-05-14T04:14:33.535Z,20
2023-05-14T04:17:04.664Z,23
2023-05-14T04:19:36.070Z,19
2023-05-14T04:22:07.755Z,18
2023-05-14T04:24:38.089Z,20
2023-05-14T04:27:08.668Z,20
2023-05-14T04:29:39.670Z,24
2023-05-14T04:32:10.765Z,21
2023-05-14T04:34:41.723Z,20
2023-05-14T04:37:13.445Z,18
2023-05-14T04:39:43.784Z,17
2023-05-14T04:42:14.709Z,19
2023-05-14T04:44:46.305Z,20
2023-05-14T04:47:17.203Z,19
2023-05-14T04:49:47.901Z,25
2023-05-14T04:52:18.451Z,21
2023-05-14T04:54:49.509Z,21
2023-05-14T04:57:20.094Z,20
2023-05-14T04:59:50.810Z,21
2023-05-14T05:02:24.275Z,21
2023-05-14T05:04:54.945Z,23
2023-05-14T05:07:25.119Z,20
2023-05-14T05:09:55.666Z,23
2023-05-14T05:12:26.686Z,21
2023-05-14T05:14:57.752Z,23
2023-05-14T05:17:28.541Z,22
2023-05-14T05:19:59.309Z,22
2023-05-14T05:22:30.786Z,20
2023-05-14T05:25:02.601Z,26
2023-05-14T05:27:33.100Z,22
2023-05-14T05:30:03.956Z,21
2023-05-14T05:32:34.776Z,33
2023-05-14T05:35:05.458Z,25
2023-05-14T05:37:36.652Z,20
2023-05-14T05:40:07.635Z,21
2023-05-14T05:42:38.390Z,23
2023-05-14T05:45:09.223Z,20
2023-05-14T05:47:40.182Z,24
2023-05-14T05:50:11.507Z,20
2023-05-14T05:52:42.680Z,22
2023-05-14T05:55:13.715Z,28
2023-05-14T05:57:44.950Z,23
2023-05-14T06:00:15.887Z,21
2023-05-14T06:02:46.811Z,24
2023-05-14T06:05:17.741Z,24
2023-05-14T06:07:47.933Z,23
2023-05-14T06:10:18.675Z,20
2023-05-14T06:12:49.900Z,21
2023-05-14T06:15:20.286Z,24
2023-05-14T06:17:51.033Z,26
2023-05-14T06:20:22.101Z,20
2023-05-14T06:22:53.065Z,25
2023-05-14T06:25:22.787Z,25
2023-05-14T06:27:54.036Z,26
2023-05-14T06:30:24.661Z,27
2023-05-14T06:32:55.176Z,29
2023-05-14T06:35:25.674Z,24
2023-05-14T06:37:56.354Z,24
2023-05-14T06:40:27.112Z,25
2023-05-14T06:42:57.757Z,27
2023-05-14T06:45:28.514Z,23
2023-05-14T06:47:59.915Z,46
2023-05-14T06:50:30.004Z,31
2023-05-14T06:53:00.966Z,24
2023-05-14T06:55:31.426Z,27
2023-05-14T06:58:02.032Z,31
2023-05-14T07:00:36.936Z,20
2023-05-14T07:03:07.849Z,31
2023-05-14T07:05:38.516Z,29
2023-05-14T07:08:09.437Z,33
2023-05-14T07:10:39.745Z,35
2023-05-14T07:13:10.815Z,43
2023-05-14T07:15:41.662Z,24
2023-05-14T07:18:12.542Z,28
2023-05-14T07:20:43.526Z,29
2023-05-14T07:23:14.811Z,36
2023-05-14T07:25:44.981Z,27
2023-05-14T07:28:15.917Z,45
2023-05-14T07:30:47.243Z,28
2023-05-14T07:33:18.140Z,27
2023-05-14T07:35:48.654Z,37
2023-05-14T07:38:19.423Z,23
2023-05-14T07:40:49.705Z,22
2023-05-14T07:43:20.101Z,31
2023-05-14T07:45:50.775Z,26
2023-05-14T07:48:21.640Z,25
2023-05-14T07:50:52.242Z,26
2023-05-14T07:53:22.430Z,25
2023-05-14T07:55:52.944Z,41
2023-05-14T07:58:23.438Z,31
2023-05-14T08:00:53.995Z,31
2023-05-14T08:03:24.834Z,30
2023-05-14T08:05:56.094Z,23
2023-05-14T08:08:26.370Z,36
2023-05-14T08:10:57.266Z,32
2023-05-14T08:13:27.534Z,29
2023-05-14T08:15:57.897Z,25
2023-05-14T08:18:28.686Z,43
2023-05-14T08:20:58.967Z,28
2023-05-14T08:23:29.646Z,28
2023-05-14T08:26:00.221Z,40
2023-05-14T08:28:30.472Z,28
2023-05-14T08:31:02.087Z,26
2023-05-14T08:33:32.568Z,48
2023-05-14T08:36:02.625Z,35
2023-05-14T08:38:33.109Z,40
2023-05-14T08:41:03.421Z,65
2023-05-14T08:43:34.742Z,28
2023-05-14T08:46:04.145Z,32
2023-05-14T08:48:34.894Z,29
2023-05-14T08:51:05.197Z,32
2023-05-14T08:53:35.665Z,36
2023-05-14T08:56:05.959Z,40
2023-05-14T08:58:36.011Z,28
2023-05-14T09:01:06.145Z,28
2023-05-14T09:03:39.116Z,25
2023-05-14T09:06:09.271Z,26
2023-05-14T09:08:39.596Z,31
2023-05-14T09:11:09.768Z,32
2023-05-14T09:13:40.040Z,33
2023-05-14T09:16:10.872Z,36
2023-05-14T09:18:41.200Z,35
2023-05-14T09:21:11.749Z,40
2023-05-14T09:23:42.512Z,28
2023-05-14T09:26:12.768Z,52
2023-05-14T09:28:42.965Z,32
2023-05-14T09:31:13.412Z,23
2023-05-14T09:33:43.745Z,24
2023-05-14T09:36:13.950Z,27
2023-05-14T09:38:44.356Z,40
2023-05-14T09:41:15.940Z,15
2023-05-14T09:43:46.768Z,27
2023-05-14T09:46:17.038Z,27
2023-05-14T09:48:47.808Z,36
2023-05-14T09:51:18.095Z,23
2023-05-14T09:53:48.313Z,26
2023-05-14T09:56:19.639Z,24
2023-05-14T09:58:49.988Z,21
2023-05-14T10:01:24.357Z,20
2023-05-14T10:03:55.808Z,28
2023-05-14T10:06:26.507Z,23
2023-05-14T10:08:57.444Z,26
2023-05-14T10:11:28.415Z,28
2023-05-14T10:13:59.063Z,29
2023-05-14T10:16:30.864Z,24
2023-05-14T10:19:01.335Z,22
2023-05-14T10:21:32.423Z,20
2023-05-14T10:24:03.340Z,20
2023-05-14T10:26:33.709Z,25
2023-05-14T10:29:04.486Z,20
2023-05-14T10:31:35.192Z,29
2023-05-14T10:34:05.629Z,21
2023-05-14T10:36:36.163Z,25
2023-05-14T10:39:06.608Z,19
2023-05-14T10:41:42.186Z,19
2023-05-14T10:44:12.789Z,27
2023-05-14T10:46:43.508Z,20
2023-05-14T10:49:14.680Z,19
2023-05-14T10:51:46.698Z,22
2023-05-14T10:54:18.186Z,20
2023-05-14T10:56:48.478Z,21
2023-05-14T10:59:19.274Z,19
2023-05-14T11:01:49.574Z,15
2023-05-14T11:04:19.786Z,20
2023-05-14T11:06:50.026Z,16
2023-05-14T11:09:21.587Z,14
2023-05-14T11:11:51.847Z,12
2023-05-14T11:14:22.138Z,19
2023-05-14T11:19:24.759Z,13
2023-05-14T11:21:54.775Z,15
2023-05-14T11:24:25.173Z,13
2023-05-14T11:26:55.596Z,15
2023-05-14T11:29:26.025Z,17
2023-05-14T11:31:57.016Z,15
2023-05-14T11:34:27.499Z,19
2023-05-14T11:36:58.464Z,12
2023-05-14T11:39:29.836Z,16
2023-05-14T11:42:00.425Z,42
2023-05-14T11:44:30.986Z,13
2023-05-14T11:47:01.339Z,12
2023-05-14T11:49:31.860Z,13
2023-05-14T11:52:02.310Z,20
2023-05-14T11:54:32.614Z,19
2023-05-14T11:57:03.383Z,22
2023-05-14T11:59:33.800Z,25
2023-05-14T12:02:04.561Z,17
2023-05-14T12:04:35.036Z,17
2023-05-14T12:07:05.533Z,21
2023-05-14T12:09:35.501Z,12
2023-05-14T12:12:06.201Z,19
2023-05-14T12:14:36.679Z,20
2023-05-14T12:17:07.490Z,22
2023-05-14T12:19:38.200Z,12
2023-05-14T12:22:08.756Z,13
2023-05-14T12:24:39.539Z,16
2023-05-14T12:27:10.264Z,16
2023-05-14T12:29:41.154Z,14
2023-05-14T12:32:12.055Z,22
2023-05-14T12:34:42.907Z,28
2023-05-14T12:37:13.562Z,28
2023-05-14T12:39:44.197Z,13
2023-05-14T12:42:15.309Z,12
2023-05-14T12:44:45.656Z,17
2023-05-14T12:47:16.398Z,16
2023-05-14T12:49:46.763Z,15
2023-05-14T12:52:25.889Z,15
2023-05-14T12:54:48.198Z,19
2023-05-14T12:57:18.780Z,21
2023-05-14T12:59:49.340Z,20
2023-05-14T13:02:20.322Z,12
2023-05-14T13:04:50.674Z,16
2023-05-14T13:07:21.109Z,21
2023-05-14T13:09:51.404Z,24
2023-05-14T13:12:22.315Z,17
2023-05-14T13:14:53.124Z,25
2023-05-14T13:17:23.724Z,21
2023-05-14T13:19:54.371Z,23
2023-05-14T13:22:24.765Z,17
2023-05-14T13:24:55.447Z,14
2023-05-14T13:27:26.048Z,30
2023-05-14T13:29:56.295Z,18
2023-05-14T13:32:26.927Z,41
2023-05-14T13:34:57.495Z,35
2023-05-14T13:37:27.920Z,17
2023-05-14T13:39:58.147Z,15
2023-05-14T13:42:29.137Z,20
2023-05-14T13:44:59.655Z,15
2023-05-14T13:47:30.215Z,17
2023-05-14T13:50:00.575Z,31
2023-05-14T13:52:31.170Z,27
2023-05-14T13:55:01.925Z,19
2023-05-14T13:57:33.245Z,16
2023-05-14T14:00:03.772Z,15
2023-05-14T14:02:34.379Z,12
2023-05-14T14:05:03.073Z,20
2023-05-14T14:07:33.534Z,11
2023-05-14T14:10:03.891Z,13
2023-05-14T14:12:34.651Z,21
2023-05-14T14:15:04.845Z,16
2023-05-14T14:17:35.319Z,19
2023-05-14T14:20:05.699Z,23
2023-05-14T14:22:36.283Z,15
2023-05-14T14:25:06.701Z,23
2023-05-14T14:27:37.052Z,15
2023-05-14T14:30:07.252Z,20
2023-05-14T14:32:37.495Z,16
2023-05-14T14:35:07.917Z,21
2023-05-14T14:37:38.391Z,20
2023-05-14T14:40:08.749Z,20
2023-05-14T14:42:40.080Z,20
2023-05-14T14:45:10.311Z,22
2023-05-14T14:47:41.217Z,16
2023-05-14T14:50:13.748Z,20
2023-05-14T14:52:45.580Z,13
2023-05-14T14:55:14.850Z,17
2023-05-14T14:57:46.054Z,20
2023-05-14T15:00:16.916Z,19
2023-05-14T15:02:50.638Z,16
2023-05-14T15:05:20.610Z,18
2023-05-14T15:07:50.473Z,16
2023-05-14T15:10:20.935Z,21
2023-05-14T15:12:51.902Z,16
2023-05-14T15:15:22.681Z,17
2023-05-14T15:17:52.920Z,19
2023-05-14T15:20:23.142Z,20
2023-05-14T15:22:53.739Z,19
2023-05-14T15:25:25.281Z,20
2023-05-14T15:27:55.422Z,21
2023-05-14T15:30:25.926Z,31
2023-05-14T15:32:56.222Z,27
2023-05-14T15:35:26.521Z,53
2023-05-14T15:37:56.785Z,69
2023-05-14T15:40:27.184Z,48
2023-05-14T15:42:57.293Z,55
2023-05-14T15:45:27.863Z,25
2023-05-14T15:47:57.092Z,33
2023-05-14T15:50:26.337Z,20
2023-05-14T15:52:56.596Z,20
2023-05-14T15:55:26.770Z,28
2023-05-14T15:57:57.837Z,18
2023-05-14T16:00:28.033Z,17
2023-05-14T16:05:28.826Z,24
2023-05-14T16:07:59.172Z,20
2023-05-14T16:10:29.970Z,19
2023-05-14T16:13:00.726Z,21
2023-05-14T16:15:29.491Z,24
2023-05-14T16:18:00.673Z,21
2023-05-14T16:20:31.024Z,25
2023-05-14T16:23:01.287Z,23
2023-05-14T16:25:31.882Z,32
2023-05-14T16:28:02.174Z,24
2023-05-14T16:30:34.457Z,20
2023-05-14T16:33:05.424Z,24
2023-05-14T16:35:36.046Z,19
2023-05-14T16:38:06.654Z,17
2023-05-14T16:40:37.518Z,18
2023-05-14T16:43:08.013Z,20
2023-05-14T16:45:38.413Z,17
2023-05-14T16:48:09.463Z,20
2023-05-14T16:50:39.906Z,20
2023-05-14T16:53:10.447Z,27
2023-05-14T16:55:41.252Z,20
2023-05-14T16:58:11.986Z,19
2023-05-14T17:00:42.512Z,20
2023-05-14T17:03:12.722Z,27
2023-05-14T17:05:43.968Z,18
2023-05-14T17:08:14.183Z,19
2023-05-14T17:10:44.566Z,19
2023-05-14T17:13:14.848Z,20
2023-05-14T17:15:46.730Z,22
2023-05-14T17:18:17.148Z,22
2023-05-14T17:20:46.007Z,24
2023-05-14T17:23:16.361Z,21
2023-05-14T17:25:46.824Z,22
2023-05-14T17:28:17.029Z,21
2023-05-14T17:30:47.188Z,26
2023-05-14T17:33:22.900Z,24
2023-05-14T17:35:52.923Z,18
2023-05-14T17:38:23.736Z,24
2023-05-14T17:40:54.877Z,24
2023-05-14T17:43:24.930Z,25
2023-05-14T17:45:57.411Z,24
2023-05-14T17:48:41.190Z,20
2023-05-14T17:51:11.350Z,24
2023-05-14T17:53:41.448Z,21
2023-05-14T17:56:15.970Z,20
2023-05-14T17:58:50.369Z,20
2023-05-14T18:01:26.260Z,30
2023-05-14T18:04:00.865Z,16
2023-05-14T18:06:31.556Z,36
2023-05-14T18:09:02.715Z,26
2023-05-14T18:11:32.185Z,41
2023-05-14T18:14:08.076Z,41
2023-05-14T18:16:36.455Z,29
2023-05-14T18:19:06.840Z,30
2023-05-14T18:21:37.214Z,27
2023-05-14T18:24:07.485Z,23
2023-05-14T18:26:37.873Z,32
2023-05-14T18:29:07.792Z,24
2023-05-14T18:31:37.912Z,28
2023-05-14T18:34:08.252Z,40
2023-05-14T18:36:38.412Z,31
2023-05-14T18:39:09.001Z,44
2023-05-14T18:41:39.474Z,25
2023-05-14T18:44:15.444Z,31
2023-05-14T18:46:46.260Z,28
2023-05-14T18:49:16.480Z,43
2023-05-14T18:51:47.126Z,32
2023-05-14T18:54:23.977Z,36
2023-05-14T18:56:54.424Z,28
2023-05-14T18:59:24.895Z,33
2023-05-14T19:02:00.787Z,34
2023-05-14T19:04:29.760Z,39
2023-05-14T19:06:59.908Z,31
2023-05-14T19:09:30.291Z,35
2023-05-14T19:12:07.201Z,32
2023-05-14T19:14:37.785Z,33
2023-05-14T19:17:08.161Z,32
2023-05-14T19:19:39.298Z,35
2023-05-14T19:22:09.696Z,37
2023-05-14T19:24:39.960Z,32
2023-05-14T19:27:10.753Z,44
2023-05-14T19:29:41.138Z,35
2023-05-14T19:32:11.703Z,32
2023-05-14T19:34:42.298Z,28
2023-05-14T19:37:12.821Z,48
2023-05-14T19:39:43.086Z,36
2023-05-14T19:42:19.116Z,30
2023-05-14T19:44:49.857Z,35
2023-05-14T19:47:25.386Z,39
2023-05-14T19:49:57.108Z,32
2023-05-14T19:52:27.375Z,36
2023-05-14T19:54:57.765Z,28
2023-05-14T19:57:28.102Z,26
2023-05-14T19:59:58.620Z,37
2023-05-14T20:02:34.986Z,31
2023-05-14T20:05:05.641Z,33
2023-05-14T20:07:37.758Z,29
2023-05-14T20:10:06.624Z,28
2023-05-14T20:12:37.207Z,27
2023-05-14T20:15:07.635Z,29
2023-05-14T20:17:39.594Z,34
2023-05-14T20:20:10.018Z,28
2023-05-14T20:22:40.191Z,26
2023-05-14T20:25:11.100Z,32
2023-05-14T20:27:42.068Z,31
2023-05-14T20:30:13.438Z,30
2023-05-14T20:32:43.482Z,29
2023-05-14T20:35:13.799Z,28
2023-05-14T20:37:44.452Z,36
2023-05-14T20:40:14.853Z,33
2023-05-14T20:42:45.150Z,35
2023-05-14T20:45:15.391Z,47
2023-05-14T20:47:45.924Z,32
2023-05-14T20:50:16.355Z,28
2023-05-14T20:52:47.085Z,32
2023-05-14T20:55:17.388Z,26
2023-05-14T20:57:48.326Z,29
2023-05-14T21:00:19.463Z,32
2023-05-14T21:02:50.229Z,32
2023-05-14T21:05:20.031Z,36
2023-05-14T21:07:51.011Z,38
2023-05-14T21:10:21.385Z,33
2023-05-14T21:12:51.908Z,35
2023-05-14T21:17:53.715Z,35
2023-05-14T21:20:24.031Z,23
2023-05-14T21:22:55.156Z,34
2023-05-14T21:25:26.008Z,33
2023-05-14T21:27:56.665Z,34
2023-05-14T21:30:28.376Z,26
2023-05-14T21:33:06.885Z,38
2023-05-14T21:35:39.015Z,33
2023-05-14T21:38:10.501Z,35
2023-05-14T21:40:41.188Z,36
2023-05-14T21:43:15.262Z,32
2023-05-14T21:45:48.415Z,40
2023-05-14T21:48:20.476Z,34
2023-05-14T21:50:51.652Z,39
2023-05-14T21:53:22.338Z,37
2023-05-14T21:55:52.816Z,35
2023-05-14T21:58:22.218Z,33
2023-05-14T22:00:52.736Z,38
2023-05-14T22:03:23.481Z,29
2023-05-14T22:05:53.776Z,29
2023-05-14T22:08:28.406Z,32
2023-05-14T22:11:06.585Z,26
2023-05-14T22:13:36.542Z,30
2023-05-14T22:16:13.100Z,32
2023-05-14T22:18:41.690Z,32
2023-05-14T22:21:12.427Z,32
2023-05-14T22:23:43.409Z,32
2023-05-14T22:26:13.752Z,28
2023-05-14T22:28:45.706Z,34
2023-05-14T22:31:15.989Z,28
2023-05-14T22:33:46.512Z,33
2023-05-14T22:36:17.151Z,29
2023-05-14T22:38:48.105Z,25
2023-05-14T22:41:19.166Z,28
2023-05-14T22:43:50.003Z,32
2023-05-14T22:46:20.827Z,32
2023-05-14T22:48:51.523Z,33
2023-05-14T22:51:22.458Z,28
2023-05-14T22:53:53.496Z,36
2023-05-14T22:56:24.260Z,29
2023-05-14T22:58:55.606Z,36
2023-05-14T23:01:27.112Z,26
2023-05-14T23:03:57.639Z,31
2023-05-14T23:06:28.244Z,32
2023-05-14T23:08:59.491Z,28
2023-05-14T23:11:30.222Z,31
2023-05-14T23:14:00.968Z,25
2023-05-14T23:16:31.972Z,33
2023-05-14T23:19:03.890Z,36
2023-05-14T23:21:34.774Z,32
2023-05-14T23:24:05.243Z,36
2023-05-14T23:26:36.275Z,28
2023-05-14T23:29:07.548Z,29
2023-05-14T23:31:38.494Z,32
2023-05-14T23:34:09.658Z,30
2023-05-14T23:36:40.607Z,26
2023-05-14T23:39:12.012Z,32
2023-05-14T23:41:42.569Z,29
2023-05-14T23:44:13.916Z,28
2023-05-14T23:46:45.974Z,26
2023-05-14T23:49:16.535Z,33
2023-05-14T23:51:47.938Z,30
2023-05-14T23:54:18.847Z,30
2023-05-14T23:56:49.705Z,40
2023-05-14T23:59:21.076Z,22
